Time;durP1;ratioP1;P1;durP2;ratioP2;P2;SDS_P1;SDS_P2;PMS_P1;PMS_P2;Temp;Humidity;BMP_temperature;BMP_pressure;BME280_temperature;BME280_humidity;BME280_pressure;Samples;Min_cycle;Max_cycle;Signal;HPM_P1;HPM_P2
2022/10/29 00:00:29;;;;;;;15.43;10.60;;;;;;;12.24;85.15;101128.41;1714955;83;21055;-62
2022/10/29 00:02:59;;;;;;;15.83;10.63;;;;;;;12.22;85.09;101128.59;1708743;83;21140;-62
2022/10/29 00:05:28;;;;;;;16.73;10.45;;;;;;;12.18;85.12;101114.91;1714501;83;21080;-63
2022/10/29 00:07:59;;;;;;;18.30;11.10;;;;;;;12.16;85.18;101110.65;1712148;83;21088;-63
2022/10/29 00:10:28;;;;;;;19.65;11.45;;;;;;;12.10;85.20;101106.77;1711974;83;21540;-62
2022/10/29 00:13:01;;;;;;;19.27;10.20;;;;;;;12.05;85.24;101107.34;1712422;83;21078;-62
2022/10/29 00:15:32;;;;;;;21.57;10.43;;;;;;;11.99;85.34;101110.84;1714372;83;21113;-63
2022/10/29 00:18:02;;;;;;;17.95;10.10;;;;;;;11.95;85.35;101109.52;1698551;83;21053;-62
2022/10/29 00:20:32;;;;;;;17.92;10.48;;;;;;;11.91;85.41;101101.84;1711255;83;21064;-62
2022/10/29 00:23:01;;;;;;;20.15;10.20;;;;;;;11.89;85.54;101086.94;1712441;83;21070;-63
2022/10/29 00:25:30;;;;;;;16.25;11.28;;;;;;;11.85;85.62;101087.50;1714908;83;21080;-62
2022/10/29 00:28:01;;;;;;;18.62;11.10;;;;;;;11.80;85.64;101091.34;1712005;83;21041;-64
2022/10/29 00:30:31;;;;;;;16.82;10.28;;;;;;;11.71;85.78;101088.65;1714885;83;21025;-62
2022/10/29 00:33:01;;;;;;;18.32;10.53;;;;;;;11.66;86.28;101086.95;1711693;83;21438;-65
2022/10/29 00:35:30;;;;;;;16.35;10.75;;;;;;;11.66;86.64;101089.70;1713123;83;21001;-62
2022/10/29 00:38:02;;;;;;;17.60;10.38;;;;;;;11.65;86.81;101081.13;1710988;83;21014;-63
2022/10/29 00:40:36;;;;;;;21.20;11.20;;;;;;;11.64;87.02;101077.20;1712785;83;21040;-63
2022/10/29 00:43:15;;;;;;;19.50;10.63;;;;;;;11.61;87.23;101075.69;1703966;82;21559;-65
2022/10/29 00:45:58;;;;;;;17.70;10.98;;;;;;;11.62;87.38;101070.53;1714845;83;21029;-62
2022/10/29 00:48:29;;;;;;;18.57;10.88;;;;;;;11.63;87.39;101064.52;1711961;83;21088;-62
2022/10/29 00:50:58;;;;;;;17.57;10.85;;;;;;;11.64;87.43;101067.59;1710660;83;21033;-62
2022/10/29 00:53:29;;;;;;;17.50;11.10;;;;;;;11.64;87.41;101058.84;1712995;83;21097;-63
2022/10/29 00:56:00;;;;;;;16.65;11.20;;;;;;;11.63;87.32;101057.14;1705985;83;21018;-62
2022/10/29 00:58:30;;;;;;;20.08;11.12;;;;;;;11.61;87.24;101063.34;1713206;83;21069;-62
2022/10/29 01:01:00;;;;;;;14.98;10.10;;;;;;;11.58;87.21;101069.20;1714968;83;21577;-63
2022/10/29 01:03:30;;;;;;;17.02;10.20;;;;;;;11.56;87.28;101074.03;1708842;83;21041;-62
2022/10/29 01:06:01;;;;;;;21.70;10.82;;;;;;;11.54;87.34;101065.13;1713086;83;21108;-67
2022/10/29 01:08:31;;;;;;;16.80;10.75;;;;;;;11.50;87.28;101067.92;1710574;83;21077;-61
2022/10/29 01:11:37;;;;;;;17.32;11.12;;;;;;;11.46;87.37;101059.73;1715354;83;21081;-62
2022/10/29 01:14:44;;;;;;;16.02;10.03;;;;;;;11.43;87.41;101061.47;1708682;83;21136;-62
2022/10/29 01:17:51;;;;;;;17.45;10.50;;;;;;;11.39;87.33;101060.14;1708549;83;21061;-63
2022/10/29 01:20:40;;;;;;;18.73;10.45;;;;;;;11.33;87.29;101063.63;1712864;83;21061;-62
2022/10/29 01:23:42;;;;;;;17.92;11.18;;;;;;;11.25;87.30;101067.83;1712310;83;21029;-62
2022/10/29 01:26:50;;;;;;;16.10;10.55;;;;;;;11.18;87.49;101060.02;1712302;83;21068;-69
2022/10/29 01:29:49;;;;;;;18.25;10.50;;;;;;;11.11;87.59;101062.12;1712178;83;20997;-63
2022/10/29 01:32:28;;;;;;;20.97;10.15;;;;;;;11.05;87.62;101063.34;1712412;83;21441;-64
2022/10/29 01:35:20;;;;;;;21.48;10.88;;;;;;;10.99;87.79;101059.45;1710397;83;21077;-61
2022/10/29 01:38:19;;;;;;;18.65;10.80;;;;;;;10.92;87.84;101061.75;1711577;83;21053;-62
2022/10/29 01:41:13;;;;;;;16.52;10.60;;;;;;;10.86;88.05;101060.59;1709874;83;21548;-63
2022/10/29 01:43:48;;;;;;;16.65;10.68;;;;;;;10.81;88.22;101058.92;1700975;83;21115;-62
2022/10/29 01:46:25;;;;;;;18.32;10.70;;;;;;;10.79;88.32;101056.36;1724164;83;21088;-63
2022/10/29 01:48:57;;;;;;;16.85;10.10;;;;;;;10.80;88.36;101050.36;1714162;83;21033;-63
2022/10/29 01:51:29;;;;;;;16.50;10.45;;;;;;;10.76;88.28;101050.39;1723941;83;21040;-63
2022/10/29 01:53:59;;;;;;;17.80;11.35;;;;;;;10.72;88.37;101043.58;1723789;83;21504;-64
2022/10/29 01:56:28;;;;;;;21.10;11.05;;;;;;;10.71;88.46;101036.39;1724054;83;21898;-62
2022/10/29 01:58:58;;;;;;;18.82;9.78;;;;;;;10.71;88.55;101037.76;1712849;83;21092;-62
2022/10/29 02:01:45;;;;;;;20.10;10.65;;;;;;;10.68;88.66;101025.79;1723999;83;21080;-63
2022/10/29 02:04:41;;;;;;;19.32;10.88;;;;;;;10.65;88.72;101029.75;1694008;83;21083;-63
2022/10/29 02:07:19;;;;;;;16.97;10.78;;;;;;;10.63;88.91;101035.08;1724054;83;21048;-63
2022/10/29 02:09:58;;;;;;;17.95;10.53;;;;;;;10.62;88.96;101030.63;1724196;83;21060;-63
2022/10/29 02:12:35;;;;;;;18.25;9.75;;;;;;;10.60;89.00;101023.96;1723835;83;21107;-63
2022/10/29 02:15:21;;;;;;;20.37;10.70;;;;;;;10.57;88.93;101027.07;1723972;83;21822;-62
2022/10/29 02:17:51;;;;;;;18.52;10.82;;;;;;;10.50;88.83;101021.13;1724116;83;21552;-63
2022/10/29 02:20:22;;;;;;;18.30;11.20;;;;;;;10.45;88.95;101015.68;1723980;83;21048;-63
2022/10/29 02:22:51;;;;;;;24.23;11.40;;;;;;;10.41;88.93;101015.70;1724035;83;21041;-62
2022/10/29 02:25:20;;;;;;;21.60;10.88;;;;;;;10.35;88.96;101016.41;1723974;83;21044;-63
2022/10/29 02:27:49;;;;;;;17.98;10.80;;;;;;;10.32;89.08;101014.02;1723849;83;21025;-64
2022/10/29 02:30:18;;;;;;;21.82;11.10;;;;;;;10.31;89.24;101019.69;1724008;83;22004;-62
2022/10/29 02:32:47;;;;;;;16.85;10.88;;;;;;;10.29;89.37;101015.76;1724049;83;21124;-64
2022/10/29 02:35:16;;;;;;;20.05;11.18;;;;;;;10.29;89.46;101018.50;1712281;83;21103;-63
2022/10/29 02:37:45;;;;;;;20.65;11.20;;;;;;;10.26;89.54;101018.86;1723959;83;21075;-62
2022/10/29 02:40:15;;;;;;;16.82;10.60;;;;;;;10.27;89.70;101021.94;1724411;83;21112;-64
2022/10/29 02:42:43;;;;;;;22.70;11.30;;;;;;;10.27;89.53;101020.56;1719914;83;21061;-63
2022/10/29 02:45:15;;;;;;;17.82;10.35;;;;;;;10.25;89.59;101013.05;1716176;83;21016;-63
2022/10/29 02:47:44;;;;;;;15.18;10.50;;;;;;;10.24;89.67;101008.59;1716202;83;21069;-69
2022/10/29 02:50:16;;;;;;;21.62;11.57;;;;;;;10.24;89.70;100994.91;1712328;83;21064;-63
2022/10/29 02:52:44;;;;;;;20.10;11.35;;;;;;;10.23;89.72;100998.67;1711601;83;21053;-62
2022/10/29 02:55:14;;;;;;;15.15;10.08;;;;;;;10.23;89.62;101006.05;1712041;83;21493;-61
2022/10/29 02:57:45;;;;;;;17.85;10.50;;;;;;;10.16;89.54;100993.03;1714143;83;21485;-62
2022/10/29 03:00:15;;;;;;;20.32;11.75;;;;;;;10.16;89.65;101002.63;1712422;83;21017;-62
2022/10/29 03:02:44;;;;;;;17.12;10.70;;;;;;;10.12;89.74;100992.21;1711778;83;21101;-63
2022/10/29 03:05:14;;;;;;;19.10;11.12;;;;;;;10.11;89.86;100983.14;1711732;83;21097;-62
2022/10/29 03:07:43;;;;;;;22.85;11.75;;;;;;;10.10;89.87;100992.91;1711885;83;21085;-61
2022/10/29 03:10:12;;;;;;;19.60;11.28;;;;;;;10.08;89.81;100990.87;1714988;83;21033;-62
2022/10/29 03:12:42;;;;;;;17.52;10.82;;;;;;;10.04;89.80;100992.26;1624885;88;21092;-62
2022/10/29 03:15:13;;;;;;;19.07;11.88;;;;;;;10.02;89.84;100986.11;1626396;88;21100;-63
2022/10/29 03:17:42;;;;;;;21.05;12.88;;;;;;;10.00;89.89;100984.92;1618093;88;21068;-63
2022/10/29 03:20:12;;;;;;;23.20;13.08;;;;;;;9.97;89.89;100989.39;1625771;88;21055;-62
2022/10/29 03:22:42;;;;;;;19.17;11.25;;;;;;;9.96;89.99;100992.30;1618286;88;21087;-63
2022/10/29 03:25:11;;;;;;;17.95;11.03;;;;;;;9.95;90.01;100981.02;1625629;88;21111;-63
2022/10/29 03:27:44;;;;;;;19.30;11.40;;;;;;;9.96;90.05;100984.95;1625584;88;21176;-61
2022/10/29 03:30:14;;;;;;;19.42;10.80;;;;;;;9.97;89.95;100981.69;1645264;83;20993;-61
2022/10/29 03:32:46;;;;;;;20.68;11.12;;;;;;;9.96;89.95;100983.58;1709674;83;21194;-63
2022/10/29 03:35:15;;;;;;;19.77;11.83;;;;;;;9.95;89.92;100965.96;1713439;83;21053;-63
2022/10/29 03:37:51;;;;;;;20.37;10.82;;;;;;;9.90;89.96;100961.55;1713438;83;21060;-62
2022/10/29 03:40:20;;;;;;;18.75;11.25;;;;;;;9.85;89.93;100972.52;1710245;83;21104;-64
2022/10/29 03:42:50;;;;;;;19.17;11.25;;;;;;;9.81;89.94;100969.80;1701637;83;21052;-62
2022/10/29 03:45:19;;;;;;;17.12;10.30;;;;;;;9.80;90.00;100962.63;1710356;83;21037;-64
2022/10/29 03:47:49;;;;;;;20.30;11.65;;;;;;;9.75;90.00;100968.26;1711828;83;21018;-63
2022/10/29 03:50:18;;;;;;;18.80;11.30;;;;;;;9.68;90.07;100976.33;1714436;83;20985;-63
2022/10/29 03:52:47;;;;;;;19.75;10.88;;;;;;;9.65;90.26;100969.84;1712305;83;21085;-62
2022/10/29 03:55:17;;;;;;;18.65;11.65;;;;;;;9.67;90.41;100972.41;1711977;83;21085;-62
2022/10/29 03:57:47;;;;;;;22.20;11.90;;;;;;;9.69;90.43;100962.98;1712219;83;21081;-63
2022/10/29 04:00:16;;;;;;;22.37;12.15;;;;;;;9.68;90.51;100951.70;1711135;83;21041;-62
2022/10/29 04:02:46;;;;;;;21.45;11.05;;;;;;;9.71;90.70;100949.13;1709900;83;21069;-64
2022/10/29 04:05:15;;;;;;;21.70;11.65;;;;;;;9.69;90.69;100949.30;1713299;83;20994;-62
2022/10/29 04:07:45;;;;;;;19.05;11.33;;;;;;;9.67;90.60;100955.47;1709856;83;21069;-63
2022/10/29 04:10:14;;;;;;;20.27;11.08;;;;;;;9.66;90.59;100950.17;1714559;83;21465;-62
2022/10/29 04:12:46;;;;;;;18.60;12.00;;;;;;;9.66;90.60;100951.55;1715349;83;21036;-63
2022/10/29 04:15:16;;;;;;;20.43;11.03;;;;;;;9.65;90.53;100955.31;1711505;83;21048;-63
2022/10/29 04:17:45;;;;;;;21.65;11.40;;;;;;;9.60;90.54;100949.52;1711826;83;21033;-63
2022/10/29 04:20:16;;;;;;;21.17;11.45;;;;;;;9.59;90.53;100956.02;1693860;83;21551;-61
2022/10/29 04:22:52;;;;;;;20.32;10.93;;;;;;;9.57;90.56;100964.92;1706126;83;21527;-64
2022/10/29 04:25:23;;;;;;;22.07;11.15;;;;;;;9.56;90.48;100948.17;1700416;83;21441;-63
2022/10/29 04:27:54;;;;;;;22.58;12.13;;;;;;;9.56;90.47;100950.91;1705752;83;21066;-62
2022/10/29 04:30:25;;;;;;;20.55;12.45;;;;;;;9.52;90.45;100949.05;1707488;83;21077;-65
2022/10/29 04:32:58;;;;;;;22.32;12.30;;;;;;;9.51;90.58;100945.97;1713199;83;21081;-64
2022/10/29 04:35:29;;;;;;;25.05;11.50;;;;;;;9.52;90.72;100943.57;1686166;84;21073;-61
2022/10/29 04:37:58;;;;;;;21.97;11.30;;;;;;;9.53;90.81;100943.39;1712037;83;21053;-64
2022/10/29 04:40:27;;;;;;;20.57;11.08;;;;;;;9.57;90.85;100944.41;1713872;83;21464;-63
2022/10/29 04:42:56;;;;;;;19.25;11.75;;;;;;;9.58;90.72;100933.28;1711604;83;21109;-65
2022/10/29 04:45:26;;;;;;;19.70;11.75;;;;;;;9.57;90.73;100937.05;1713031;82;21096;-61
2022/10/29 04:48:02;;;;;;;20.30;12.13;;;;;;;9.57;90.70;100932.09;1713337;83;21080;-64
2022/10/29 04:50:32;;;;;;;22.07;12.10;;;;;;;9.56;90.70;100923.03;1705287;83;21100;-65
2022/10/29 04:53:03;;;;;;;22.85;12.53;;;;;;;9.58;90.70;100923.70;1711970;83;21088;-62
2022/10/29 04:55:37;;;;;;;22.90;12.15;;;;;;;9.57;90.66;100925.25;1706397;83;21021;-63
2022/10/29 04:58:06;;;;;;;23.20;12.65;;;;;;;9.54;90.68;100938.26;1713131;83;21053;-64
2022/10/29 05:00:36;;;;;;;21.42;12.65;;;;;;;9.57;90.75;100934.31;1714718;83;21018;-63
2022/10/29 05:03:05;;;;;;;21.30;11.85;;;;;;;9.59;90.65;100942.34;1711550;83;21037;-64
2022/10/29 05:05:38;;;;;;;20.10;11.53;;;;;;;9.59;90.52;100944.56;1713620;83;21061;-62
2022/10/29 05:08:09;;;;;;;19.52;12.00;;;;;;;9.56;90.58;100944.92;1712165;83;21085;-63
2022/10/29 05:10:38;;;;;;;18.23;11.53;;;;;;;9.56;90.77;100925.77;1714725;83;21049;-62
2022/10/29 05:13:11;;;;;;;18.50;11.10;;;;;;;9.58;90.87;100928.33;1708995;83;21096;-65
2022/10/29 05:15:42;;;;;;;19.05;10.53;;;;;;;9.60;90.93;100921.64;1649705;86;21039;-62
2022/10/29 05:18:11;;;;;;;22.45;11.83;;;;;;;9.63;90.89;100918.55;1658047;86;21063;-66
2022/10/29 05:20:40;;;;;;;19.07;10.72;;;;;;;9.65;90.96;100911.02;1625617;88;21051;-63
2022/10/29 05:23:10;;;;;;;20.48;12.78;;;;;;;9.68;90.98;100909.80;1611913;88;21056;-62
2022/10/29 05:25:40;;;;;;;20.25;11.15;;;;;;;9.68;90.94;100910.66;1605391;89;21173;-62
2022/10/29 05:28:12;;;;;;;24.18;11.12;;;;;;;9.68;90.83;100919.38;1607298;89;21059;-63
2022/10/29 05:30:42;;;;;;;24.67;11.33;;;;;;;9.67;90.70;100911.69;1589104;89;21522;-62
2022/10/29 05:33:14;;;;;;;24.50;11.80;;;;;;;9.65;90.70;100923.33;1620583;86;21463;-63
2022/10/29 05:35:43;;;;;;;22.27;11.08;;;;;;;9.65;90.71;100923.33;1701366;83;21076;-63
2022/10/29 05:38:14;;;;;;;18.30;11.50;;;;;;;9.66;90.74;100914.09;1713549;83;21029;-63
2022/10/29 05:40:43;;;;;;;23.67;12.28;;;;;;;9.66;90.72;100924.18;1712036;83;21136;-62
2022/10/29 05:43:14;;;;;;;22.10;11.83;;;;;;;9.68;90.72;100926.22;1709022;83;21045;-62
2022/10/29 05:45:43;;;;;;;23.77;11.57;;;;;;;9.73;90.77;100921.06;1704379;83;21152;-63
2022/10/29 05:48:13;;;;;;;20.32;12.70;;;;;;;9.74;90.76;100914.05;1709112;84;21001;-64
2022/10/29 05:50:42;;;;;;;23.95;12.90;;;;;;;9.76;90.83;100924.84;1704139;84;21020;-62
2022/10/29 05:53:13;;;;;;;19.02;11.55;;;;;;;9.75;90.85;100925.84;1704531;84;21046;-63
2022/10/29 05:55:43;;;;;;;23.10;12.50;;;;;;;9.77;90.90;100934.24;1698888;84;21047;-64
2022/10/29 05:58:13;;;;;;;24.35;12.80;;;;;;;9.79;91.04;100917.64;1704212;84;21061;-63
2022/10/29 06:00:44;;;;;;;24.55;12.35;;;;;;;9.83;91.05;100913.00;1698455;84;21094;-64
2022/10/29 06:03:15;;;;;;;24.15;12.70;;;;;;;9.87;91.17;100908.53;1702207;84;21456;-61
2022/10/29 06:05:46;;;;;;;22.48;13.35;;;;;;;9.94;91.26;100905.41;1702287;84;20997;-63
2022/10/29 06:08:15;;;;;;;24.43;12.63;;;;;;;9.98;91.37;100907.59;1702134;84;21098;-63
2022/10/29 06:10:44;;;;;;;25.88;13.35;;;;;;;10.04;91.34;100900.02;1697897;84;21074;-63
2022/10/29 06:13:16;;;;;;;27.45;14.55;;;;;;;10.10;91.23;100906.14;1701184;84;21074;-64
2022/10/29 06:15:50;;;;;;;26.35;14.25;;;;;;;10.18;91.22;100907.97;1702901;84;21029;-62
2022/10/29 06:18:19;;;;;;;27.65;15.53;;;;;;;10.23;91.15;100909.67;1703907;84;21094;-63
2022/10/29 06:20:49;;;;;;;25.85;14.85;;;;;;;10.30;91.05;100912.01;1699039;84;21103;-63
2022/10/29 06:23:19;;;;;;;23.95;15.03;;;;;;;10.34;90.95;100902.39;1704313;84;21037;-62
2022/10/29 06:25:48;;;;;;;24.23;13.30;;;;;;;10.40;90.84;100904.91;1703914;84;21056;-65
2022/10/29 06:28:18;;;;;;;27.07;14.18;;;;;;;10.44;90.69;100900.80;1692632;84;21098;-63
2022/10/29 06:30:50;;;;;;;22.22;13.25;;;;;;;10.48;90.59;100900.24;1706913;84;21049;-64
2022/10/29 06:33:22;;;;;;;22.50;13.58;;;;;;;10.53;90.48;100900.20;1709143;84;21429;-63
2022/10/29 06:35:53;;;;;;;24.80;12.55;;;;;;;10.59;90.58;100913.16;1703926;84;21014;-65
2022/10/29 06:38:22;;;;;;;26.70;13.53;;;;;;;10.68;90.53;100895.09;1649619;84;21033;-63
2022/10/29 06:40:54;;;;;;;25.92;13.40;;;;;;;10.80;90.36;100899.08;1700501;84;21051;-64
2022/10/29 06:43:24;;;;;;;26.30;13.20;;;;;;;10.91;90.12;100894.17;1704654;84;21495;-63
2022/10/29 06:45:53;;;;;;;21.27;14.33;;;;;;;11.00;89.85;100882.92;1712435;83;21069;-62
2022/10/29 06:48:24;;;;;;;24.90;14.47;;;;;;;11.10;89.55;100879.92;1716390;83;21029;-64
2022/10/29 06:50:54;;;;;;;23.73;13.40;;;;;;;11.17;89.13;100885.51;1713097;83;21060;-68
2022/10/29 06:53:24;;;;;;;23.70;11.78;;;;;;;11.24;88.76;100871.36;1702339;83;21049;-63
2022/10/29 06:55:53;;;;;;;21.70;12.05;;;;;;;11.29;88.29;100862.89;1713115;83;21501;-62
2022/10/29 06:58:22;;;;;;;20.40;11.78;;;;;;;11.35;88.05;100861.27;1702305;83;21072;-63
2022/10/29 07:00:53;;;;;;;25.30;12.33;;;;;;;11.41;87.78;100855.02;1716229;83;21059;-64
2022/10/29 07:03:23;;;;;;;20.08;12.25;;;;;;;11.46;87.44;100856.66;1712064;83;21053;-63
2022/10/29 07:05:56;;;;;;;20.97;11.85;;;;;;;11.50;87.08;100844.78;1711886;83;21045;-63
2022/10/29 07:08:25;;;;;;;19.55;11.97;;;;;;;11.55;86.82;100836.81;1712829;83;21052;-62
2022/10/29 07:10:55;;;;;;;22.87;11.93;;;;;;;11.58;86.52;100832.31;1710506;83;21018;-63
2022/10/29 07:13:24;;;;;;;24.40;12.30;;;;;;;11.62;86.35;100826.77;1713151;83;22383;-63
2022/10/29 07:15:55;;;;;;;26.55;13.13;;;;;;;11.66;86.35;100828.08;1713828;83;21041;-63
2022/10/29 07:18:27;;;;;;;21.35;12.33;;;;;;;11.74;86.34;100844.45;1712769;83;21140;-62
2022/10/29 07:20:57;;;;;;;24.20;12.60;;;;;;;11.81;86.26;100832.20;1713961;83;21057;-65
2022/10/29 07:23:26;;;;;;;21.17;12.23;;;;;;;11.90;86.07;100839.27;1714681;83;21041;-62
2022/10/29 07:25:59;;;;;;;19.75;11.57;;;;;;;11.98;85.73;100852.34;1656889;86;21102;-64
2022/10/29 07:28:28;;;;;;;21.27;11.70;;;;;;;12.02;85.10;100851.44;1662541;85;21521;-63
2022/10/29 07:30:59;;;;;;;23.05;12.65;;;;;;;12.01;84.68;100845.61;1659978;86;21570;-64
2022/10/29 07:33:29;;;;;;;19.62;10.93;;;;;;;12.00;84.26;100841.16;1660225;86;21087;-63
2022/10/29 07:36:01;;;;;;;22.20;12.37;;;;;;;11.98;84.12;100844.63;1658460;86;21056;-63
2022/10/29 07:38:32;;;;;;;23.55;12.65;;;;;;;11.99;84.00;100839.47;1662084;86;21050;-61
2022/10/29 07:41:01;;;;;;;25.08;11.38;;;;;;;12.00;83.93;100838.42;1659879;86;21063;-62
2022/10/29 07:43:32;;;;;;;22.58;11.53;;;;;;;12.02;83.86;100839.08;1670112;83;21473;-62
2022/10/29 07:46:01;;;;;;;21.30;12.10;;;;;;;12.04;83.83;100837.83;1713991;82;21574;-62
2022/10/29 07:48:31;;;;;;;24.80;12.58;;;;;;;12.07;83.76;100843.45;1724661;82;21072;-63
2022/10/29 07:51:04;;;;;;;22.17;10.95;;;;;;;12.12;83.89;100851.95;1690297;83;21464;-63
2022/10/29 07:53:33;;;;;;;21.23;11.88;;;;;;;12.19;83.83;100849.27;1711648;83;21116;-63
2022/10/29 07:56:02;;;;;;;17.62;11.15;;;;;;;12.27;83.70;100845.86;1716135;83;21476;-65
2022/10/29 07:58:31;;;;;;;19.17;11.80;;;;;;;12.38;83.61;100845.88;1709502;83;21089;-63
2022/10/29 08:01:00;;;;;;;20.40;11.63;;;;;;;12.50;83.37;100844.80;1712753;83;21060;-66
2022/10/29 08:03:30;;;;;;;22.27;13.10;;;;;;;12.58;83.10;100847.41;1709916;83;21057;-64
2022/10/29 08:06:01;;;;;;;26.05;16.20;;;;;;;12.67;82.86;100837.95;1713272;83;21021;-65
2022/10/29 08:08:33;;;;;;;29.35;20.57;;;;;;;12.78;82.43;100839.30;1712926;83;21495;-65
2022/10/29 08:11:02;;;;;;;26.73;17.77;;;;;;;12.85;82.00;100831.94;1705722;83;21061;-64
2022/10/29 08:13:31;;;;;;;30.15;18.42;;;;;;;12.88;81.53;100821.38;1710226;83;21084;-64
2022/10/29 08:16:01;;;;;;;26.10;17.07;;;;;;;12.88;81.19;100822.76;1711445;83;21105;-65
2022/10/29 08:18:32;;;;;;;20.95;12.13;;;;;;;12.94;81.12;100816.97;1711721;83;21085;-64
2022/10/29 08:21:04;;;;;;;21.90;11.95;;;;;;;13.03;81.27;100821.28;1715670;83;21061;-63
2022/10/29 08:23:34;;;;;;;18.60;10.60;;;;;;;13.22;81.26;100814.21;1713096;83;21480;-65
2022/10/29 08:26:03;;;;;;;23.22;10.95;;;;;;;13.41;80.63;100816.20;1712862;83;20997;-65
2022/10/29 08:28:33;;;;;;;14.83;9.20;;;;;;;13.55;79.97;100823.44;1713373;83;21088;-63
2022/10/29 08:31:04;;;;;;;17.23;10.20;;;;;;;13.67;79.38;100818.22;1712861;83;21100;-64
2022/10/29 08:33:33;;;;;;;16.85;9.78;;;;;;;13.75;78.96;100818.02;1710558;83;21151;-64
2022/10/29 08:36:02;;;;;;;19.67;10.08;;;;;;;13.81;78.56;100811.68;1715695;83;21054;-62
2022/10/29 08:38:31;;;;;;;17.95;9.10;;;;;;;13.88;78.34;100804.80;1710679;83;21492;-64
2022/10/29 08:41:17;;;;;;;15.58;8.68;;;;;;;13.94;77.94;100800.68;1709381;83;21006;-64
2022/10/29 08:43:57;;;;;;;16.52;9.15;;;;;;;14.03;77.72;100802.70;1713205;83;21069;-66
2022/10/29 08:46:55;;;;;;;17.90;9.43;;;;;;;14.10;77.08;100794.44;1682911;84;21107;-65
2022/10/29 08:49:35;;;;;;;17.50;9.88;;;;;;;14.15;77.02;100788.61;1696355;83;21030;-64
2022/10/29 08:52:11;;;;;;;18.73;8.78;;;;;;;14.25;76.72;100781.30;1686907;84;21091;-65
2022/10/29 08:54:41;;;;;;;16.67;9.50;;;;;;;14.34;76.44;100781.43;1695442;84;21866;-64
2022/10/29 08:57:17;;;;;;;17.75;9.23;;;;;;;14.43;76.36;100778.80;1691868;84;21499;-66
2022/10/29 09:00:00;;;;;;;17.17;9.28;;;;;;;14.51;76.09;100781.34;1692067;84;21080;-64
2022/10/29 09:02:30;;;;;;;16.20;9.55;;;;;;;14.58;75.67;100773.91;1687045;84;21525;-64
2022/10/29 09:05:00;;;;;;;15.78;9.78;;;;;;;14.66;75.46;100781.63;1702288;84;21013;-65
2022/10/29 09:08:16;;;;;;;17.15;8.83;;;;;;;14.70;75.20;100775.47;1684232;84;21156;-65
2022/10/29 09:10:53;;;;;;;14.87;8.78;;;;;;;14.76;74.95;100777.36;1690222;84;21036;-64
2022/10/29 09:13:33;;;;;;;15.13;9.08;;;;;;;14.81;74.79;100771.20;1692374;84;21158;-64
2022/10/29 09:16:17;;;;;;;16.23;9.05;;;;;;;14.85;74.54;100765.03;1691785;84;21101;-66
2022/10/29 09:19:17;;;;;;;16.57;9.43;;;;;;;14.88;74.35;100760.98;1698094;84;21041;-64
2022/10/29 09:22:23;;;;;;;17.55;9.38;;;;;;;14.93;74.41;100767.23;1681867;84;21127;-62
2022/10/29 09:25:19;;;;;;;14.63;8.90;;;;;;;15.00;74.29;100757.05;1691707;84;21048;-63
2022/10/29 09:28:08;;;;;;;14.33;9.33;;;;;;;15.05;74.10;100741.53;1691925;84;21129;-65
2022/10/29 09:30:48;;;;;;;17.30;8.35;;;;;;;15.14;73.90;100747.66;1694817;84;21474;-64
2022/10/29 09:33:19;;;;;;;15.68;8.68;;;;;;;15.21;73.65;100741.56;1693614;84;21501;-65
2022/10/29 09:35:53;;;;;;;19.75;8.73;;;;;;;15.27;73.38;100746.20;1689275;84;21057;-65
2022/10/29 09:38:27;;;;;;;11.70;7.53;;;;;;;15.30;73.28;100748.53;1701045;84;21053;-65
2022/10/29 09:40:57;;;;;;;12.80;8.00;;;;;;;15.36;73.25;100739.36;1698078;84;21578;-63
2022/10/29 09:44:00;;;;;;;14.95;8.85;;;;;;;15.41;73.08;100729.88;1685937;84;21079;-65
2022/10/29 09:46:41;;;;;;;16.30;8.45;;;;;;;15.46;72.75;100719.55;1707973;83;21089;-65
2022/10/29 09:49:54;;;;;;;16.57;9.00;;;;;;;15.47;72.57;100709.66;1712891;83;21479;-66
2022/10/29 09:52:25;;;;;;;13.35;8.23;;;;;;;15.49;72.32;100709.44;1709422;83;21090;-65
2022/10/29 09:54:54;;;;;;;17.92;8.33;;;;;;;15.50;72.19;100705.61;1714162;83;21103;-64
2022/10/29 09:57:25;;;;;;;15.30;8.18;;;;;;;15.53;72.11;100710.16;1710110;83;21084;-65
2022/10/29 09:59:57;;;;;;;14.47;7.62;;;;;;;15.59;71.81;100695.17;1710172;83;21924;-65
2022/10/29 10:02:45;;;;;;;14.75;8.25;;;;;;;15.63;71.63;100686.78;1712763;83;21048;-64
2022/10/29 10:05:16;;;;;;;;;;;;;;;15.68;71.15;100681.43;1706900;83;21053;-66
2022/10/29 10:08:09;;;;;;;12.50;7.25;;;;;;;15.72;71.05;100677.99;1708407;83;20575;-65
2022/10/29 10:10:58;;;;;;;19.60;7.50;;;;;;;15.76;71.16;100682.53;1711819;83;21308;-64
2022/10/29 10:13:31;;;;;;;15.95;7.65;;;;;;;15.81;71.00;100675.80;1710067;83;21116;-66
2022/10/29 10:16:02;;;;;;;13.03;7.65;;;;;;;15.87;70.62;100679.04;1705922;83;21073;-67
2022/10/29 10:18:39;;;;;;;13.78;6.42;;;;;;;15.91;70.55;100680.28;1712126;83;21585;-67
2022/10/29 10:21:15;;;;;;;11.83;7.00;;;;;;;15.96;70.46;100679.06;1712987;83;21096;-64
2022/10/29 10:23:51;;;;;;;15.13;9.38;;;;;;;15.99;70.21;100666.17;1714623;83;21129;-65
2022/10/29 10:26:41;;;;;;;14.40;8.25;;;;;;;16.02;70.22;100641.38;1711829;83;21790;-64
2022/10/29 10:29:24;;;;;;;14.43;7.97;;;;;;;16.04;69.97;100642.00;1713705;83;21045;-66
2022/10/29 10:32:01;;;;;;;16.23;7.90;;;;;;;16.03;69.88;100636.16;1712346;83;21073;-64
2022/10/29 10:34:38;;;;;;;11.88;7.12;;;;;;;16.05;69.92;100627.11;1711689;83;21053;-68
2022/10/29 10:37:18;;;;;;;16.32;7.75;;;;;;;16.04;69.92;100601.38;1711849;83;21481;-65
2022/10/29 10:40:02;;;;;;;13.55;8.20;;;;;;;16.05;70.65;100579.58;1711716;83;21518;-64
2022/10/29 10:42:36;;;;;;;13.85;7.53;;;;;;;16.01;71.63;100585.26;1714586;83;21130;-64
2022/10/29 10:45:18;;;;;;;15.13;8.10;;;;;;;15.98;72.30;100600.91;1712988;83;21552;-65
2022/10/29 10:47:52;;;;;;;14.05;7.75;;;;;;;15.94;73.26;100591.39;1680203;83;21513;-67
2022/10/29 10:50:28;;;;;;;14.80;7.95;;;;;;;15.91;73.66;100595.15;1713357;83;21062;-65
2022/10/29 10:52:58;;;;;;;14.43;8.13;;;;;;;15.89;74.03;100598.67;1709238;83;21019;-65
2022/10/29 10:55:34;;;;;;;13.65;8.60;;;;;;;15.86;74.38;100593.06;1716666;83;21495;-72
2022/10/29 10:58:24;;;;;;;20.65;9.35;;;;;;;15.84;74.52;100586.39;1704151;83;21017;-66
2022/10/29 11:01:05;;;;;;;16.85;9.18;;;;;;;15.82;74.73;100573.34;1706735;83;21094;-65
2022/10/29 11:03:40;;;;;;;17.07;8.05;;;;;;;15.79;74.56;100566.04;1707554;83;21046;-65
2022/10/29 11:06:28;;;;;;;16.27;9.05;;;;;;;15.75;74.64;100568.95;1705220;83;21055;-65
2022/10/29 11:09:39;;;;;;;14.40;8.25;;;;;;;15.74;75.10;100568.11;1709323;83;21122;-66
2022/10/29 11:12:34;;;;;;;15.25;8.50;;;;;;;15.72;75.37;100562.50;1709534;83;21557;-64
2022/10/29 11:15:23;;;;;;;15.25;8.90;;;;;;;15.70;75.98;100569.63;1704210;83;21098;-65
2022/10/29 11:17:59;;;;;;;16.70;9.23;;;;;;;15.69;76.71;100573.47;1713767;83;21093;-64
2022/10/29 11:20:34;;;;;;;18.07;9.10;;;;;;;15.71;77.31;100571.32;1708117;83;21080;-65
2022/10/29 11:23:23;;;;;;;15.23;8.58;;;;;;;15.72;77.73;100570.25;1711411;83;21029;-64
2022/10/29 11:26:15;;;;;;;15.68;9.15;;;;;;;15.72;77.75;100567.48;1711807;83;20997;-65
2022/10/29 11:28:52;;;;;;;17.45;9.28;;;;;;;15.74;77.81;100568.64;1678005;83;21079;-66
2022/10/29 11:32:06;;;;;;;15.48;9.13;;;;;;;15.74;77.92;100552.06;1704831;83;21074;-65
2022/10/29 11:35:11;;;;;;;14.60;8.23;;;;;;;15.76;77.91;100539.71;1716695;83;21025;-65
2022/10/29 11:37:51;;;;;;;20.52;9.30;;;;;;;15.78;77.87;100511.86;1710022;83;21529;-69
2022/10/29 11:40:35;;;;;;;15.43;8.70;;;;;;;15.80;78.07;100508.33;1715131;83;21104;-67
2022/10/29 11:43:11;;;;;;;17.45;8.20;;;;;;;15.81;77.89;100512.78;1714228;83;21140;-66
2022/10/29 11:46:05;;;;;;;14.05;8.25;;;;;;;15.82;78.13;100519.99;1703706;83;21110;-67
2022/10/29 11:49:17;;;;;;;19.30;9.30;;;;;;;15.83;78.32;100514.77;1716206;83;21128;-66